»·PEaware :: AAL3012 KLAS-KPHX

AAL3012 :: KLAS-KPHX

FLIGHT INFORMATION

Flight Status: Arrived
Operator:
American Airlines
More flights by this operator :: More flights under this callsign
Pilot: Gabriel S. (32862)
Aircraft: AIRBUS A321
(A321)
More flights by this aircraft type
Origin: KLAS McCarran Intl
United States
Destination: KPHX Phoenix Sky Harbor Intl
United States
More flights between these airports :: More routes between these airports
Route: PRFUM4 PRFUM WOTRO BRUSR1
File this flight plan on PilotEdge
Remarks: RMK / SIMBRIEF
Altitude:
(Current/Filed)
31,000ft
Speed:
(Current/Filed)
432kts
Departed: 07-Jan-21 10:46 PM
Arrived: 07-Jan-21 11:30 PM
Distance/Time
Traveled:
222nm/0:44
Distance/Time
To Go:
Arrived

Flight Plot

Page will automatically refresh every two minutes.

Flight plan parsing failed; only flown route is shown


Map Options




Map Legend


Flown Route
Filed Route
Departure Airport
Arrival Airport
Navaid (VOR, NDB)
Fix

Horizontal Profiles

Position Reports

Time Latitude Longitude Heading Altitude Ground
Speed
07-Jan-21 22:33 36.079883 -115.139591 353 2187ft 0kts
07-Jan-21 22:34 36.079883 -115.139591 353 2187ft 0kts
07-Jan-21 22:35 36.079883 -115.139591 353 2187ft 0kts
07-Jan-21 22:36 36.079880 -115.139590 353 2187ft 0kts
07-Jan-21 22:37 36.079386 -115.139361 301 2187ft 2kts
07-Jan-21 22:38 36.079444 -115.138784 222 2187ft 1kts
07-Jan-21 22:39 36.079467 -115.138756 225 2187ft 0kts
07-Jan-21 22:40 36.079462 -115.138762 225 2187ft 0kts
07-Jan-21 22:41 36.078236 -115.138240 115 2187ft 13kts
07-Jan-21 22:42 36.078299 -115.130675 89 2187ft 28kts
07-Jan-21 22:43 36.077775 -115.121834 128 2187ft 15kts
07-Jan-21 22:44 36.076712 -115.121305 204 2187ft 12kts
07-Jan-21 22:45 36.076400 -115.148605 269 2300ft 178kts
07-Jan-21 22:46 36.075956 -115.210716 271 4814ft 200kts
07-Jan-21 22:47 36.041087 -115.269250 199 6783ft 280kts
07-Jan-21 22:48 35.967697 -115.297850 178 6985ft 277kts
07-Jan-21 22:49 35.893163 -115.271760 162 9519ft 287kts
07-Jan-21 22:50 35.848436 -115.190572 105 11246ft 335kts
07-Jan-21 22:51 35.823776 -115.069375 94 12518ft 391kts
07-Jan-21 22:52 35.831189 -114.933459 84 14737ft 409kts
07-Jan-21 22:53 35.842040 -114.790720 85 16702ft 428kts
07-Jan-21 22:54 35.852735 -114.641656 88 18504ft 445kts
07-Jan-21 22:55 35.806749 -114.503284 127 20189ft 448kts
07-Jan-21 22:56 35.736697 -114.373651 126 21763ft 463kts
07-Jan-21 22:57 35.665164 -114.239108 127 23216ft 476kts
07-Jan-21 22:58 35.593210 -114.104437 127 24538ft 487kts
07-Jan-21 22:59 35.518088 -113.964435 127 26098ft 491kts
07-Jan-21 23:00 35.443017 -113.825347 127 27715ft 489kts
07-Jan-21 23:01 35.368735 -113.688169 127 29182ft 488kts
07-Jan-21 23:02 35.293581 -113.549871 127 30458ft 488kts
07-Jan-21 23:03 35.217787 -113.410924 127 31209ft 499kts
07-Jan-21 23:04 35.140557 -113.269333 127 30953ft 493kts
07-Jan-21 23:05 35.065767 -113.132371 127 28938ft 480kts
07-Jan-21 23:06 34.991659 -112.998396 127 29046ft 478kts
07-Jan-21 23:07 34.917710 -112.865285 127 29152ft 479kts
07-Jan-21 23:08 34.844463 -112.734372 127 28142ft 489kts
07-Jan-21 23:09 34.768126 -112.597908 126 25151ft 495kts
07-Jan-21 23:10 34.688444 -112.467545 139 24116ft 466kts
07-Jan-21 23:11 34.589595 -112.369858 144 22057ft 453kts
07-Jan-21 23:12 34.492055 -112.274538 144 20110ft 439kts
07-Jan-21 23:13 34.387264 -112.213417 172 18384ft 401kts
07-Jan-21 23:14 34.280614 -112.186805 171 16805ft 378kts
07-Jan-21 23:15 34.179969 -112.160878 170 15404ft 355kts
07-Jan-21 23:16 34.084463 -112.138384 179 14064ft 332kts
07-Jan-21 23:17 33.995256 -112.146692 187 12841ft 311kts
07-Jan-21 23:18 33.911526 -112.156273 189 11692ft 294kts
07-Jan-21 23:19 33.831970 -112.172711 190 10303ft 288kts
07-Jan-21 23:20 33.754118 -112.189178 190 9075ft 278kts
07-Jan-21 23:21 33.680214 -112.204738 190 8067ft 262kts
07-Jan-21 23:22 33.610621 -112.219402 190 7106ft 246kts
07-Jan-21 23:23 33.543578 -112.233739 190 6065ft 239kts
07-Jan-21 23:24 33.478937 -112.245450 166 5037ft 234kts
07-Jan-21 23:25 33.451502 -112.183831 103 3990ft 203kts
07-Jan-21 23:26 33.440964 -112.123017 92 2807ft 167kts
07-Jan-21 23:27 33.440909 -112.073116 91 1820ft 144kts
07-Jan-21 23:28 33.440843 -112.023988 89 1135ft 141kts
07-Jan-21 23:29 33.439758 -112.009715 90 1128ft 17kts
07-Jan-21 23:30 33.439748 -112.002140 89 1131ft 22kts
07-Jan-21 23:32 33.439544 -111.995620 143 1137ft 10kts
07-Jan-21 23:33 33.438037 -111.994913 144 1134ft 0kts

Navigation Log

Ident Type
Flight plan parsing failed, navigation log unavailable